createdAt,value
2022-09-04T00:03:26.652Z,2.78
2022-09-04T00:08:52.841Z,2.95
2022-09-04T00:14:02.558Z,2.20
2022-09-04T00:19:16.262Z,2.65
2022-09-04T00:24:24.238Z,2.45
2022-09-04T00:29:40.476Z,2.30
2022-09-04T00:34:59.634Z,2.10
2022-09-04T00:40:09.221Z,2.53
2022-09-04T00:45:31.411Z,2.30
2022-09-04T00:51:04.053Z,2.30
2022-09-04T00:56:30.810Z,2.50
2022-09-04T01:01:38.917Z,2.65
2022-09-04T01:06:51.073Z,2.33
2022-09-04T01:12:09.855Z,2.72
2022-09-04T01:17:26.455Z,2.50
2022-09-04T01:22:53.993Z,2.60
2022-09-04T01:28:05.472Z,2.38
2022-09-04T01:33:17.161Z,2.80
2022-09-04T01:38:32.697Z,2.38
2022-09-04T01:43:38.742Z,2.58
2022-09-04T01:48:47.684Z,2.53
2022-09-04T01:54:05.777Z,2.70
2022-09-04T01:59:24.753Z,2.55
2022-09-04T02:04:33.559Z,2.95
2022-09-04T02:09:46.665Z,2.78
2022-09-04T02:15:05.132Z,2.13
2022-09-04T02:20:23.413Z,2.90
2022-09-04T02:25:33.911Z,2.75
2022-09-04T02:30:46.707Z,2.78
2022-09-04T02:36:03.852Z,2.67
2022-09-04T02:41:19.861Z,2.60
2022-09-04T02:46:33.714Z,3.10
2022-09-04T02:51:55.335Z,3.15
2022-09-04T02:57:09.384Z,3.10
2022-09-04T03:02:23.254Z,3.05
2022-09-04T03:07:32.875Z,2.97
2022-09-04T03:12:41.380Z,2.45
2022-09-04T03:17:51.314Z,3.30
2022-09-04T03:23:02.938Z,2.92
2022-09-04T03:28:10.061Z,3.28
2022-09-04T03:33:27.529Z,3.20
2022-09-04T03:38:35.994Z,2.95
2022-09-04T03:43:57.920Z,2.92
2022-09-04T03:49:16.741Z,3.13
2022-09-04T03:54:35.866Z,2.97
2022-09-04T03:59:50.447Z,3.10
2022-09-04T04:05:30.033Z,3.35
2022-09-04T04:10:46.475Z,3.08
2022-09-04T04:16:10.058Z,3.17
2022-09-04T04:21:31.407Z,3.67
2022-09-04T04:26:52.892Z,3.10
2022-09-04T04:32:16.396Z,3.10
2022-09-04T04:37:31.585Z,3.53
2022-09-04T04:42:42.090Z,3.40
2022-09-04T04:48:22.541Z,3.35
2022-09-04T04:53:32.444Z,3.40
2022-09-04T04:58:54.657Z,3.15
2022-09-04T05:04:12.857Z,3.60
2022-09-04T05:09:24.053Z,3.55
2022-09-04T05:14:39.511Z,3.08
2022-09-04T05:19:52.405Z,3.67
2022-09-04T05:25:04.540Z,3.53
2022-09-04T05:30:16.720Z,3.58
2022-09-04T05:35:35.212Z,3.45
2022-09-04T05:41:14.478Z,3.65
2022-09-04T05:46:33.054Z,3.40
2022-09-04T05:51:57.043Z,3.78
2022-09-04T05:57:24.184Z,3.47
2022-09-04T06:03:05.332Z,3.58
2022-09-04T06:08:25.193Z,3.40
2022-09-04T06:13:58.564Z,4.30
2022-09-04T06:19:17.848Z,3.70
2022-09-04T06:24:38.939Z,3.58
2022-09-04T06:30:06.805Z,3.63
2022-09-04T06:35:31.856Z,3.63
2022-09-04T06:40:50.282Z,4.15
2022-09-04T06:46:07.361Z,3.97
2022-09-04T06:51:24.309Z,3.85
2022-09-04T06:56:50.317Z,4.35
2022-09-04T07:02:17.674Z,3.70
2022-09-04T07:07:32.038Z,4.13
2022-09-04T07:12:49.197Z,3.97
2022-09-04T07:18:04.777Z,3.65
2022-09-04T07:23:40.730Z,3.70
2022-09-04T07:28:57.781Z,3.63
2022-09-04T07:34:12.319Z,3.90
2022-09-04T07:39:24.560Z,3.58
2022-09-04T07:44:35.551Z,3.70
2022-09-04T07:49:51.115Z,3.70
2022-09-04T07:55:11.814Z,3.17
2022-09-04T08:00:18.712Z,3.53
2022-09-04T08:05:32.874Z,3.83
2022-09-04T08:10:43.022Z,3.20
2022-09-04T08:15:59.273Z,3.63
2022-09-04T08:21:17.232Z,3.25
2022-09-04T08:26:31.197Z,2.92
2022-09-04T08:31:44.652Z,3.10
2022-09-04T08:36:59.620Z,3.35
2022-09-04T08:42:46.979Z,3.13
2022-09-04T08:48:49.748Z,3.28
2022-09-04T08:54:16.029Z,2.70
2022-09-04T08:59:48.103Z,3.03
2022-09-04T09:05:29.348Z,2.67
2022-09-04T09:10:56.262Z,2.90
2022-09-04T09:16:20.448Z,2.13
2022-09-04T09:21:40.057Z,2.60
2022-09-04T09:27:02.591Z,2.80
2022-09-04T09:32:46.297Z,2.40
2022-09-04T09:38:15.098Z,2.72
2022-09-04T09:43:50.767Z,2.65
2022-09-04T09:49:30.090Z,2.72
2022-09-04T09:55:15.732Z,3.00
2022-09-04T10:00:24.167Z,2.47
2022-09-04T10:06:11.059Z,2.53
2022-09-04T10:11:36.837Z,2.50
2022-09-04T10:17:16.520Z,2.60
2022-09-04T10:22:48.483Z,2.35
2022-09-04T10:28:21.238Z,2.40
2022-09-04T10:33:45.094Z,2.33
2022-09-04T10:39:22.016Z,1.90
2022-09-04T10:44:42.464Z,2.17
2022-09-04T10:50:03.911Z,2.03
2022-09-04T10:55:29.357Z,2.00
2022-09-04T11:00:51.375Z,1.98
2022-09-04T11:06:31.674Z,2.53
2022-09-04T11:12:09.868Z,2.20
2022-09-04T11:17:52.429Z,2.33
2022-09-04T11:23:42.201Z,1.70
2022-09-04T11:29:02.250Z,2.00
2022-09-04T11:34:50.823Z,2.10
2022-09-04T11:40:39.080Z,2.10
2022-09-04T11:45:57.967Z,1.95
2022-09-04T11:51:29.102Z,2.50
2022-09-04T11:56:46.331Z,2.45
2022-09-04T12:02:11.628Z,2.58
2022-09-04T12:07:40.647Z,2.40
2022-09-04T12:13:19.558Z,2.17
2022-09-04T12:19:09.560Z,2.40
2022-09-04T12:24:37.278Z,1.83
2022-09-04T12:30:03.248Z,1.90
2022-09-04T12:35:50.837Z,2.33
2022-09-04T12:41:03.347Z,1.77
2022-09-04T12:46:17.408Z,1.80
2022-09-04T12:51:25.345Z,1.92
2022-09-04T12:56:42.254Z,1.95
2022-09-04T13:02:02.059Z,2.10
2022-09-04T13:07:24.575Z,2.00
2022-09-04T13:12:40.787Z,1.95
2022-09-04T13:17:55.307Z,1.77
2022-09-04T13:23:13.488Z,2.00
2022-09-04T13:28:30.414Z,2.20
2022-09-04T13:33:53.352Z,1.92
2022-09-04T13:39:42.617Z,1.98
2022-09-04T13:45:10.130Z,1.88
2022-09-04T13:50:25.501Z,1.75
2022-09-04T13:55:34.773Z,2.15
2022-09-04T14:00:50.409Z,1.63
2022-09-04T14:05:55.938Z,1.92
2022-09-04T14:11:25.715Z,1.88
2022-09-04T14:16:34.011Z,1.88
2022-09-04T14:21:58.706Z,1.60
2022-09-04T14:27:11.380Z,1.63
2022-09-04T14:32:25.921Z,1.88
2022-09-04T14:37:48.466Z,1.63
2022-09-04T14:42:59.694Z,1.70
2022-09-04T14:48:09.399Z,1.63
2022-09-04T14:53:21.549Z,1.75
2022-09-04T14:58:31.165Z,1.90
2022-09-04T15:03:46.748Z,1.77
2022-09-04T15:08:51.758Z,1.80
2022-09-04T15:14:04.880Z,2.22
2022-09-04T15:19:26.855Z,1.80
2022-09-04T15:24:37.960Z,1.73
2022-09-04T15:29:59.598Z,1.63
2022-09-04T15:35:23.079Z,1.55
2022-09-04T15:40:35.723Z,1.70
2022-09-04T15:45:46.007Z,2.13
2022-09-04T15:51:03.684Z,2.08
2022-09-04T15:56:11.144Z,1.90
2022-09-04T16:01:17.456Z,1.90
2022-09-04T16:06:32.844Z,1.83
2022-09-04T16:11:47.535Z,2.00
2022-09-04T16:16:54.586Z,2.20
2022-09-04T16:22:11.638Z,1.80
2022-09-04T16:27:18.212Z,1.80
2022-09-04T16:32:23.396Z,2.20
2022-09-04T16:37:33.278Z,1.90
2022-09-04T16:42:42.509Z,2.10
2022-09-04T16:47:56.749Z,1.88
2022-09-04T16:53:14.458Z,1.65
2022-09-04T16:58:40.358Z,1.90
2022-09-04T17:04:13.497Z,1.90
2022-09-04T17:09:37.975Z,2.00
2022-09-04T17:14:47.603Z,1.80
2022-09-04T17:20:05.190Z,2.80
2022-09-04T17:28:56.457Z,1.92
2022-09-04T17:30:51.423Z,2.30
2022-09-04T17:40:37.323Z,2.20
2022-09-04T17:41:47.371Z,2.10
2022-09-04T17:47:10.132Z,2.20
2022-09-04T17:52:23.009Z,1.90
2022-09-04T17:57:47.977Z,2.25
2022-09-04T18:02:57.545Z,2.20
2022-09-04T18:08:16.471Z,2.10
2022-09-04T18:13:37.988Z,2.05
2022-09-04T18:18:47.403Z,2.22
2022-09-04T18:23:59.777Z,2.65
2022-09-04T18:30:02.033Z,1.98
2022-09-04T18:37:20.792Z,1.92
2022-09-04T18:40:13.023Z,2.20
2022-09-04T18:50:30.653Z,2.15
2022-09-04T18:51:12.551Z,2.70
2022-09-04T18:56:24.794Z,2.25
2022-09-04T19:01:46.512Z,2.20
2022-09-04T19:07:07.818Z,2.20
2022-09-04T19:12:17.948Z,2.20
2022-09-04T19:17:26.504Z,1.90
2022-09-04T19:22:36.453Z,2.10
2022-09-04T19:27:42.842Z,2.42
2022-09-04T19:33:10.003Z,2.10
2022-09-04T19:44:01.221Z,2.10
2022-09-04T19:46:18.861Z,1.90
2022-09-04T19:51:28.803Z,1.70
2022-09-04T19:54:59.898Z,1.80
2022-09-04T20:00:42.996Z,1.77
2022-09-04T20:05:57.874Z,1.70
2022-09-04T20:11:34.805Z,1.70
2022-09-04T20:16:48.440Z,2.00
2022-09-04T20:21:57.615Z,1.80
2022-09-04T20:27:09.788Z,1.75
2022-09-04T20:32:19.808Z,1.73
2022-09-04T20:37:34.306Z,1.70
2022-09-04T20:42:42.674Z,1.88
2022-09-04T20:52:52.987Z,2.40
2022-09-04T20:53:32.485Z,1.83
2022-09-04T21:03:13.781Z,1.77
2022-09-04T21:04:42.840Z,1.80
2022-09-04T21:10:00.703Z,1.85
2022-09-04T21:15:12.741Z,2.10
2022-09-04T21:21:01.009Z,1.80
2022-09-04T21:26:19.299Z,2.03
2022-09-04T21:31:50.090Z,1.90
2022-09-04T21:37:04.213Z,2.05
2022-09-04T21:42:34.865Z,2.00
2022-09-04T21:48:18.355Z,1.92
2022-09-04T21:54:31.208Z,2.28
2022-09-04T22:02:42.418Z,2.13
2022-09-04T22:05:43.837Z,1.98
2022-09-04T22:13:40.446Z,2.00
2022-09-04T22:16:46.542Z,2.50
2022-09-04T22:22:03.681Z,2.28
2022-09-04T22:28:07.259Z,2.67
2022-09-04T22:34:14.295Z,2.60
2022-09-04T22:39:31.935Z,2.33
2022-09-04T22:44:54.566Z,2.38
2022-09-04T22:50:49.576Z,2.40
2022-09-04T22:56:06.598Z,2.60
2022-09-04T23:01:37.852Z,2.70
2022-09-04T23:12:31.986Z,2.80
2022-09-04T23:14:02.712Z,2.78
2022-09-04T23:23:52.127Z,2.80
2022-09-04T23:26:43.056Z,2.45
2022-09-04T23:30:25.753Z,2.92
2022-09-04T23:35:44.112Z,2.47
2022-09-04T23:40:53.637Z,3.33
2022-09-04T23:46:26.402Z,2.65
2022-09-04T23:51:41.565Z,3.28
2022-09-04T23:56:51.423Z,3.47
